createdAt,value
2018-12-11T00:00:32.230Z,13.57
2018-12-11T00:03:00.334Z,19.03
2018-12-11T00:05:28.513Z,17.77
2018-12-11T00:07:56.621Z,14.33
2018-12-11T00:10:24.749Z,13.70
2018-12-11T00:12:52.864Z,14.80
2018-12-11T00:15:21.121Z,15.73
2018-12-11T00:17:49.280Z,12.97
2018-12-11T00:20:17.397Z,11.50
2018-12-11T00:22:45.648Z,23.00
2018-12-11T00:25:13.898Z,19.90
2018-12-11T00:27:42.053Z,22.93
2018-12-11T00:30:10.307Z,16.63
2018-12-11T00:32:38.462Z,11.67
2018-12-11T00:35:06.654Z,19.00
2018-12-11T00:37:34.831Z,13.93
2018-12-11T00:40:03.032Z,18.27
2018-12-11T00:42:31.202Z,14.80
2018-12-11T00:44:59.313Z,10.60
2018-12-11T00:47:27.569Z,11.83
2018-12-11T00:49:55.668Z,16.03
2018-12-11T00:52:23.829Z,25.10
2018-12-11T00:54:51.993Z,23.03
2018-12-11T00:57:20.176Z,17.40
2018-12-11T00:59:48.365Z,13.27
2018-12-11T01:02:16.681Z,18.47
2018-12-11T01:04:44.874Z,19.17
2018-12-11T01:07:13.095Z,16.17
2018-12-11T01:09:41.283Z,18.30
2018-12-11T01:12:09.535Z,18.63
2018-12-11T01:14:37.641Z,10.33
2018-12-11T01:17:05.797Z,8.97
2018-12-11T01:19:34.043Z,18.27
2018-12-11T01:22:02.920Z,10.03
2018-12-11T01:24:31.073Z,13.60
2018-12-11T01:26:59.173Z,13.77
2018-12-11T01:29:27.386Z,11.27
2018-12-11T01:31:55.557Z,13.83
2018-12-11T01:34:23.653Z,15.07
2018-12-11T01:36:51.749Z,17.57
2018-12-11T01:39:19.845Z,18.60
2018-12-11T01:41:47.963Z,12.53
2018-12-11T01:44:16.132Z,13.90
2018-12-11T01:46:44.313Z,15.63
2018-12-11T01:49:12.545Z,20.67
2018-12-11T01:51:40.737Z,10.27
2018-12-11T01:54:08.914Z,10.47
2018-12-11T01:56:37.018Z,11.23
2018-12-11T01:59:05.844Z,7.10
2018-12-11T02:01:34.106Z,8.00
2018-12-11T02:04:02.362Z,15.33
2018-12-11T02:06:31.531Z,7.20
2018-12-11T02:08:59.740Z,13.97
2018-12-11T02:11:27.930Z,11.70
2018-12-11T02:13:56.046Z,20.60
2018-12-11T02:16:24.302Z,18.67
2018-12-11T02:18:52.475Z,7.50
2018-12-11T02:21:20.642Z,9.40
2018-12-11T02:23:48.770Z,17.57
2018-12-11T02:26:16.976Z,9.60
2018-12-11T02:28:45.162Z,12.63
2018-12-11T02:31:13.441Z,13.67
2018-12-11T02:33:41.700Z,13.90
2018-12-11T02:36:09.807Z,16.33
2018-12-11T02:38:37.995Z,10.47
2018-12-11T02:41:06.268Z,13.40
2018-12-11T02:43:34.522Z,12.17
2018-12-11T02:46:02.739Z,14.87
2018-12-11T02:48:31.067Z,16.90
2018-12-11T02:50:59.298Z,15.40
2018-12-11T02:53:27.401Z,12.77
2018-12-11T02:55:55.512Z,9.60
2018-12-11T02:58:23.694Z,18.33
2018-12-11T03:00:51.823Z,17.37
2018-12-11T03:03:20.100Z,15.57
2018-12-11T03:05:48.282Z,11.97
2018-12-11T03:08:16.486Z,16.30
2018-12-11T03:10:44.785Z,15.53
2018-12-11T03:13:13.015Z,15.10
2018-12-11T03:15:41.255Z,16.17
2018-12-11T03:18:09.464Z,12.23
2018-12-11T03:20:37.646Z,9.30
2018-12-11T03:23:05.821Z,8.37
2018-12-11T03:25:34.015Z,20.03
2018-12-11T03:28:02.151Z,12.57
2018-12-11T03:30:30.260Z,10.17
2018-12-11T03:32:58.439Z,13.93
2018-12-11T03:35:26.731Z,11.20
2018-12-11T03:37:54.835Z,12.73
2018-12-11T03:40:23.111Z,15.50
2018-12-11T03:42:51.322Z,8.67
2018-12-11T03:45:19.587Z,15.17
2018-12-11T03:47:47.789Z,23.53
2018-12-11T03:50:16.013Z,16.90
2018-12-11T03:52:44.148Z,17.70
2018-12-11T03:55:12.434Z,13.33
2018-12-11T03:57:40.575Z,22.10
2018-12-11T04:00:09.281Z,17.47
2018-12-11T04:02:37.554Z,17.43
2018-12-11T04:05:06.386Z,9.97
2018-12-11T04:07:34.673Z,11.40
2018-12-11T04:10:03.063Z,19.90
2018-12-11T04:12:31.269Z,19.80
2018-12-11T04:14:59.578Z,13.60
2018-12-11T04:17:27.786Z,24.83
2018-12-11T04:19:55.917Z,13.27
2018-12-11T04:22:24.123Z,13.60
2018-12-11T04:24:52.250Z,19.43
2018-12-11T04:27:20.492Z,14.50
2018-12-11T04:29:48.697Z,17.33
2018-12-11T04:32:16.827Z,15.33
2018-12-11T04:34:45.030Z,14.57
2018-12-11T04:37:13.223Z,29.67
2018-12-11T04:39:41.354Z,14.77
2018-12-11T04:42:09.601Z,17.27
2018-12-11T04:44:37.798Z,9.60
2018-12-11T04:47:06.051Z,22.97
2018-12-11T04:49:34.178Z,10.53
2018-12-11T04:52:02.361Z,10.63
2018-12-11T04:54:30.618Z,16.43
2018-12-11T04:56:58.869Z,23.50
2018-12-11T04:59:26.981Z,20.87
2018-12-11T05:01:55.065Z,18.30
2018-12-11T05:04:23.247Z,15.73
2018-12-11T05:06:51.517Z,18.27
2018-12-11T05:09:19.710Z,16.77
2018-12-11T05:11:47.899Z,13.83
2018-12-11T05:14:16.014Z,9.80
2018-12-11T05:16:44.157Z,11.67
2018-12-11T05:19:12.459Z,17.50
2018-12-11T05:21:40.577Z,14.80
2018-12-11T05:24:08.841Z,16.13
2018-12-11T05:26:37.038Z,13.60
2018-12-11T05:29:05.158Z,13.33
2018-12-11T05:31:33.409Z,12.37
2018-12-11T05:34:01.531Z,11.40
2018-12-11T05:36:29.720Z,13.73
2018-12-11T05:38:57.915Z,17.13
2018-12-11T05:41:26.128Z,21.43
2018-12-11T05:43:54.259Z,21.20
2018-12-11T05:46:22.452Z,16.70
2018-12-11T05:48:50.633Z,12.03
2018-12-11T05:51:18.834Z,19.23
2018-12-11T05:53:46.958Z,17.90
2018-12-11T05:56:15.098Z,13.10
2018-12-11T05:58:43.292Z,14.43
2018-12-11T06:01:11.586Z,12.30
2018-12-11T06:03:39.884Z,18.40
2018-12-11T06:06:08.013Z,10.67
2018-12-11T06:08:36.148Z,10.10
2018-12-11T06:11:04.357Z,9.60
2018-12-11T06:13:32.483Z,13.77
2018-12-11T06:16:00.625Z,10.90
2018-12-11T06:18:28.843Z,11.83
2018-12-11T06:20:57.077Z,15.90
2018-12-11T06:23:25.204Z,12.83
2018-12-11T06:25:53.342Z,14.20
2018-12-11T06:28:21.480Z,10.07
2018-12-11T06:30:49.915Z,9.90
2018-12-11T06:33:18.146Z,14.00
2018-12-11T06:35:46.274Z,14.40
2018-12-11T06:38:14.402Z,20.97
2018-12-11T06:40:52.969Z,13.40
2018-12-11T06:43:21.158Z,22.13
2018-12-11T06:45:49.410Z,20.50
2018-12-11T06:48:17.550Z,18.47
2018-12-11T06:50:45.686Z,10.23
2018-12-11T06:53:13.900Z,16.17
2018-12-11T06:55:42.006Z,17.83
2018-12-11T06:58:10.193Z,11.90
2018-12-11T07:00:38.406Z,12.70
2018-12-11T07:03:06.530Z,19.23
2018-12-11T07:05:35.209Z,10.20
2018-12-11T07:08:03.469Z,15.13
2018-12-11T07:10:31.735Z,16.60
2018-12-11T07:12:59.916Z,16.57
2018-12-11T07:15:28.097Z,11.63
2018-12-11T07:17:56.215Z,17.93
2018-12-11T07:20:24.467Z,18.00
2018-12-11T07:22:52.592Z,9.50
2018-12-11T07:25:20.825Z,7.83
2018-12-11T07:27:49.031Z,6.60
2018-12-11T07:30:17.217Z,10.27
2018-12-11T07:32:45.337Z,10.57
2018-12-11T07:35:13.526Z,13.30
2018-12-11T07:37:41.655Z,14.17
2018-12-11T07:40:09.940Z,12.83
2018-12-11T07:42:38.268Z,35.47
2018-12-11T07:45:06.530Z,18.67
2018-12-11T07:47:34.665Z,12.53
2018-12-11T07:50:02.941Z,18.33
2018-12-11T07:52:31.144Z,28.60
2018-12-11T07:54:59.254Z,22.20
2018-12-11T07:57:27.374Z,26.27
2018-12-11T07:59:55.468Z,16.00
2018-12-11T08:02:23.739Z,14.40
2018-12-11T08:04:51.869Z,11.00
2018-12-11T08:07:20.118Z,16.67
2018-12-11T08:09:48.404Z,21.73
2018-12-11T08:12:16.606Z,18.57
2018-12-11T08:14:44.806Z,18.70
2018-12-11T08:17:12.986Z,23.00
2018-12-11T08:19:41.799Z,28.57
2018-12-11T08:22:10.030Z,19.27
2018-12-11T08:24:38.154Z,19.53
2018-12-11T08:27:06.785Z,18.30
2018-12-11T08:29:34.928Z,15.30
2018-12-11T08:32:03.291Z,24.13
2018-12-11T08:34:31.406Z,15.37
2018-12-11T08:36:59.526Z,18.23
2018-12-11T08:39:27.762Z,11.57
2018-12-11T08:41:55.884Z,8.00
2018-12-11T08:44:25.268Z,15.37
2018-12-11T08:46:53.545Z,13.93
2018-12-11T08:49:21.676Z,12.90
2018-12-11T08:51:49.859Z,7.13
2018-12-11T08:54:17.981Z,9.50
2018-12-11T08:56:46.218Z,11.73
2018-12-11T08:59:14.332Z,15.43
2018-12-11T09:01:42.564Z,27.17
2018-12-11T09:04:10.682Z,19.97
2018-12-11T09:06:38.807Z,17.90
2018-12-11T09:09:07.493Z,16.67
2018-12-11T09:11:35.698Z,18.40
2018-12-11T09:14:04.049Z,16.10
2018-12-11T09:16:32.298Z,9.13
2018-12-11T09:19:00.456Z,19.67
2018-12-11T09:21:28.634Z,15.20
2018-12-11T09:23:56.822Z,21.77
2018-12-11T09:26:25.067Z,16.27
2018-12-11T09:28:53.167Z,18.77
2018-12-11T09:31:21.379Z,18.77
2018-12-11T09:33:49.488Z,10.80
2018-12-11T09:36:17.683Z,17.20
2018-12-11T09:38:45.800Z,19.07
2018-12-11T09:41:14.004Z,14.90
2018-12-11T09:43:42.126Z,21.97
2018-12-11T09:46:10.543Z,19.67
2018-12-11T09:48:38.767Z,22.27
2018-12-11T09:51:07.058Z,18.40
2018-12-11T09:53:35.280Z,14.60
2018-12-11T09:56:03.493Z,24.83
2018-12-11T09:58:31.710Z,19.87
2018-12-11T10:00:59.934Z,17.43
2018-12-11T10:03:28.090Z,20.53
2018-12-11T10:05:56.380Z,19.60
2018-12-11T10:08:24.655Z,24.10
2018-12-11T10:10:52.867Z,15.20
2018-12-11T10:13:27.879Z,9.50
2018-12-11T10:15:56.004Z,13.90
2018-12-11T10:18:24.224Z,14.97
2018-12-11T10:20:52.421Z,11.47
2018-12-11T10:23:20.926Z,14.63
2018-12-11T10:25:49.093Z,11.40
2018-12-11T10:28:17.294Z,15.10
2018-12-11T10:30:47.762Z,12.93
2018-12-11T10:33:16.444Z,18.10
2018-12-11T10:35:44.678Z,21.23
2018-12-11T10:38:12.921Z,16.30
2018-12-11T10:40:41.142Z,12.53
2018-12-11T10:43:09.265Z,18.03
2018-12-11T10:45:37.491Z,17.83
2018-12-11T10:48:05.785Z,8.53
2018-12-11T10:50:33.946Z,14.47
2018-12-11T10:53:02.082Z,14.57
2018-12-11T10:55:30.315Z,16.43
2018-12-11T10:57:59.515Z,9.90
2018-12-11T11:00:33.133Z,10.27
2018-12-11T11:03:07.291Z,11.57
2018-12-11T11:05:35.501Z,12.53
2018-12-11T11:08:03.797Z,18.60
2018-12-11T11:10:31.934Z,20.00
2018-12-11T11:13:00.214Z,12.90
2018-12-11T11:15:28.333Z,22.63
2018-12-11T11:17:56.632Z,11.03
2018-12-11T11:20:24.772Z,16.77
2018-12-11T11:22:53.038Z,10.87
2018-12-11T11:25:21.234Z,13.30
2018-12-11T11:27:49.440Z,11.00
2018-12-11T11:30:17.642Z,15.00
2018-12-11T11:32:45.845Z,14.20
2018-12-11T11:35:14.052Z,10.37
2018-12-11T11:37:42.186Z,11.27
2018-12-11T11:40:10.310Z,10.10
2018-12-11T11:42:38.850Z,11.70
2018-12-11T11:45:08.220Z,11.33
2018-12-11T11:47:36.380Z,16.73
2018-12-11T11:50:06.090Z,16.80
2018-12-11T11:52:34.239Z,15.53
2018-12-11T11:55:02.366Z,11.50
2018-12-11T11:57:30.499Z,15.73
2018-12-11T11:59:58.625Z,13.63
2018-12-11T12:02:33.228Z,17.40
2018-12-11T12:04:57.066Z,12.57
2018-12-11T12:07:25.234Z,12.70
2018-12-11T12:09:53.434Z,11.20
2018-12-11T12:12:21.553Z,23.87
2018-12-11T12:14:49.690Z,13.27
2018-12-11T12:17:17.807Z,14.17
2018-12-11T12:19:46.009Z,14.47
2018-12-11T12:22:14.150Z,10.97
2018-12-11T12:24:42.302Z,13.90
2018-12-11T12:27:10.532Z,24.57
2018-12-11T12:29:38.759Z,20.93
2018-12-11T12:32:07.000Z,12.47
2018-12-11T12:34:35.158Z,15.83
2018-12-11T12:37:03.352Z,14.37
2018-12-11T12:39:31.493Z,11.40
2018-12-11T12:41:59.813Z,14.10
2018-12-11T12:44:28.026Z,14.20
2018-12-11T12:46:56.170Z,17.07
2018-12-11T12:49:24.293Z,21.00
2018-12-11T12:51:52.450Z,9.60
2018-12-11T12:54:20.581Z,6.63
2018-12-11T12:56:48.756Z,9.23
2018-12-11T12:59:17.020Z,13.00
2018-12-11T13:01:45.161Z,11.73
2018-12-11T13:04:13.366Z,7.53
2018-12-11T13:06:41.852Z,14.87
2018-12-11T13:09:10.149Z,12.77
2018-12-11T13:11:38.261Z,9.63
2018-12-11T13:14:06.391Z,13.77
2018-12-11T13:16:34.551Z,15.20
2018-12-11T13:19:02.753Z,9.10
2018-12-11T13:21:30.958Z,11.03
2018-12-11T13:23:59.089Z,20.60
2018-12-11T13:26:27.233Z,6.90
2018-12-11T13:28:55.360Z,8.53
2018-12-11T13:31:23.515Z,13.60
2018-12-11T13:33:51.720Z,7.00
2018-12-11T13:36:19.843Z,14.23
2018-12-11T13:38:48.065Z,11.03
2018-12-11T13:41:16.297Z,12.53
2018-12-11T13:43:44.766Z,9.20
2018-12-11T13:46:12.962Z,8.30
2018-12-11T13:48:41.183Z,12.23
2018-12-11T13:51:09.370Z,7.17
2018-12-11T13:53:37.494Z,11.27
2018-12-11T13:56:05.779Z,13.00
2018-12-11T13:58:33.981Z,10.37
2018-12-11T14:01:02.105Z,7.30
2018-12-11T14:03:30.225Z,10.57
2018-12-11T14:05:58.347Z,10.80
2018-12-11T14:08:27.034Z,10.53
2018-12-11T14:10:55.171Z,11.03
2018-12-11T14:13:23.299Z,9.83
2018-12-11T14:15:51.503Z,8.90
2018-12-11T14:18:19.736Z,5.73
2018-12-11T14:20:47.942Z,13.23
2018-12-11T14:23:16.080Z,8.00
2018-12-11T14:25:44.374Z,11.37
2018-12-11T14:28:12.558Z,9.00
2018-12-11T14:30:40.836Z,9.67
2018-12-11T14:33:09.065Z,9.90
2018-12-11T14:35:37.298Z,13.27
2018-12-11T14:38:05.439Z,9.00
2018-12-11T14:40:33.634Z,8.03
2018-12-11T14:43:01.850Z,7.97
2018-12-11T14:45:29.979Z,12.23
2018-12-11T14:47:58.113Z,11.33
2018-12-11T14:50:26.467Z,8.07
2018-12-11T14:52:54.614Z,8.33
2018-12-11T14:55:22.734Z,5.57
2018-12-11T14:57:50.939Z,6.60
2018-12-11T15:00:19.232Z,7.93
2018-12-11T15:02:47.623Z,10.10
2018-12-11T15:05:16.126Z,10.83
2018-12-11T15:07:44.485Z,13.70
2018-12-11T15:10:12.838Z,6.40
2018-12-11T15:12:41.040Z,9.70
2018-12-11T15:15:10.286Z,14.80
2018-12-11T15:17:38.385Z,9.07
2018-12-11T15:20:08.160Z,13.53
2018-12-11T15:22:36.446Z,12.10
2018-12-11T15:25:05.017Z,12.43
2018-12-11T15:27:33.234Z,10.10
2018-12-11T15:30:01.402Z,18.13
2018-12-11T15:32:29.510Z,16.20
2018-12-11T15:34:57.623Z,12.33
2018-12-11T15:37:25.785Z,13.50
2018-12-11T15:39:53.911Z,8.47
2018-12-11T15:42:22.042Z,8.40
2018-12-11T15:44:50.170Z,13.97
2018-12-11T15:47:18.281Z,13.67
2018-12-11T15:49:46.398Z,13.67
2018-12-11T15:52:14.518Z,12.03
2018-12-11T15:54:42.628Z,5.73
2018-12-11T15:57:10.826Z,24.03
2018-12-11T15:59:39.038Z,10.87
2018-12-11T16:02:07.226Z,8.13
2018-12-11T16:04:35.343Z,10.60
2018-12-11T16:07:03.650Z,5.20
2018-12-11T16:09:37.173Z,9.93
2018-12-11T16:12:06.299Z,12.33
2018-12-11T16:14:34.870Z,12.33
2018-12-11T16:17:03.131Z,7.87
2018-12-11T16:19:31.409Z,10.63
2018-12-11T16:21:59.762Z,7.27
2018-12-11T16:24:27.986Z,12.70
2018-12-11T16:26:56.194Z,7.90
2018-12-11T16:29:24.311Z,8.00
2018-12-11T16:31:52.591Z,5.37
2018-12-11T16:34:20.712Z,5.30
2018-12-11T16:36:48.886Z,6.37
2018-12-11T16:39:17.076Z,8.03
2018-12-11T16:41:45.169Z,11.83
2018-12-11T16:44:13.261Z,4.80
2018-12-11T16:46:41.431Z,5.60
2018-12-11T16:49:09.537Z,3.70
2018-12-11T16:51:37.641Z,7.10
2018-12-11T16:54:05.840Z,3.30
2018-12-11T16:56:33.930Z,2.70
2018-12-11T16:59:02.127Z,7.47
2018-12-11T17:01:30.213Z,6.37
2018-12-11T17:03:58.508Z,4.20
2018-12-11T17:06:26.659Z,3.23
2018-12-11T17:08:54.838Z,4.40
2018-12-11T17:11:23.019Z,4.77
2018-12-11T17:13:51.142Z,3.53
2018-12-11T17:16:19.332Z,2.50
2018-12-11T17:18:47.461Z,5.10
2018-12-11T17:21:15.575Z,4.10
2018-12-11T17:23:43.757Z,2.57
2018-12-11T17:26:11.909Z,5.43
2018-12-11T17:28:40.105Z,7.20
2018-12-11T17:31:08.253Z,4.60
2018-12-11T17:33:36.394Z,3.73
2018-12-11T17:36:04.596Z,4.70
2018-12-11T17:38:32.805Z,3.60
2018-12-11T17:41:00.924Z,6.00
2018-12-11T17:43:29.274Z,4.30
2018-12-11T17:45:57.472Z,2.93
2018-12-11T17:48:25.902Z,7.53
2018-12-11T17:50:54.448Z,4.47
2018-12-11T17:53:22.841Z,4.30
2018-12-11T17:55:50.952Z,3.70
2018-12-11T17:58:19.059Z,7.97
2018-12-11T18:00:47.246Z,6.60
2018-12-11T18:03:15.418Z,3.00
2018-12-11T18:05:43.639Z,3.80
2018-12-11T18:08:11.826Z,5.63
2018-12-11T18:10:39.932Z,4.70
2018-12-11T18:13:08.118Z,3.60
2018-12-11T18:15:36.219Z,8.70
2018-12-11T18:18:04.473Z,5.90
2018-12-11T18:20:32.760Z,4.73
2018-12-11T18:23:00.998Z,3.17
2018-12-11T18:25:29.122Z,7.60
2018-12-11T18:27:57.249Z,4.20
2018-12-11T18:30:25.366Z,6.60
2018-12-11T18:32:53.475Z,3.37
2018-12-11T18:35:22.317Z,4.40
2018-12-11T18:37:50.487Z,4.47
2018-12-11T18:40:18.694Z,5.87
2018-12-11T18:42:46.875Z,6.53
2018-12-11T18:45:15.135Z,7.10
2018-12-11T18:47:49.712Z,8.00
2018-12-11T18:50:13.593Z,8.83
2018-12-11T18:52:41.830Z,8.10
2018-12-11T18:55:10.075Z,5.20
2018-12-11T18:57:38.338Z,9.03
2018-12-11T19:00:08.442Z,6.83
2018-12-11T19:02:36.579Z,8.47
2018-12-11T19:05:05.378Z,4.10
2018-12-11T19:07:33.581Z,6.63
2018-12-11T19:10:01.920Z,6.93
2018-12-11T19:12:30.325Z,10.10
2018-12-11T19:15:04.615Z,5.53
2018-12-11T19:17:28.756Z,8.57
2018-12-11T19:19:57.166Z,6.73
2018-12-11T19:22:25.353Z,6.57
2018-12-11T19:24:55.380Z,7.03
2018-12-11T19:27:24.045Z,10.77
2018-12-11T19:29:52.264Z,7.80
2018-12-11T19:32:20.612Z,5.63
2018-12-11T19:34:48.803Z,6.40
2018-12-11T19:37:17.069Z,3.60
2018-12-11T19:39:45.270Z,6.17
2018-12-11T19:42:13.538Z,7.33
2018-12-11T19:44:41.688Z,7.60
2018-12-11T19:47:09.830Z,9.90
2018-12-11T19:49:38.167Z,6.80
2018-12-11T19:52:06.306Z,5.73
2018-12-11T19:54:34.525Z,3.70
2018-12-11T19:57:03.148Z,5.50
2018-12-11T19:59:41.677Z,5.70
2018-12-11T20:02:10.249Z,7.00
2018-12-11T20:04:38.404Z,5.27
2018-12-11T20:07:06.492Z,10.87
2018-12-11T20:09:36.652Z,5.70
2018-12-11T20:12:04.787Z,6.90
2018-12-11T20:14:32.983Z,8.43
2018-12-11T20:17:01.126Z,4.70
2018-12-11T20:19:29.289Z,7.47
2018-12-11T20:21:57.491Z,8.27
2018-12-11T20:24:25.627Z,7.60
2018-12-11T20:26:53.774Z,4.40
2018-12-11T20:29:21.896Z,7.40
2018-12-11T20:31:50.032Z,8.33
2018-12-11T20:34:18.108Z,5.50
2018-12-11T20:36:46.358Z,10.90
2018-12-11T20:39:14.480Z,9.23
2018-12-11T20:41:42.577Z,8.83
2018-12-11T20:44:10.715Z,8.80
2018-12-11T20:46:38.907Z,7.53
2018-12-11T20:49:07.055Z,5.37
2018-12-11T20:51:35.152Z,7.10
2018-12-11T20:54:03.367Z,5.50
2018-12-11T20:56:31.545Z,8.23
2018-12-11T20:58:59.748Z,9.93
2018-12-11T21:01:27.817Z,5.07
2018-12-11T21:03:55.889Z,5.93
2018-12-11T21:06:24.053Z,11.70
2018-12-11T21:08:52.126Z,8.43
2018-12-11T21:11:20.279Z,5.67
2018-12-11T21:13:48.472Z,8.53
2018-12-11T21:16:16.542Z,8.20
2018-12-11T21:18:44.955Z,8.57
2018-12-11T21:21:13.529Z,6.03
2018-12-11T21:23:41.677Z,7.37
2018-12-11T21:26:09.812Z,6.87
2018-12-11T21:28:37.904Z,5.20
2018-12-11T21:31:06.121Z,6.07
2018-12-11T21:33:34.242Z,5.57
2018-12-11T21:36:02.358Z,8.63
2018-12-11T21:38:30.472Z,4.97
2018-12-11T21:40:58.586Z,8.60
2018-12-11T21:43:26.835Z,8.80
2018-12-11T21:45:55.003Z,6.97
2018-12-11T21:48:23.176Z,9.83
2018-12-11T21:50:52.040Z,13.30
2018-12-11T21:53:20.394Z,7.00
2018-12-11T21:55:48.641Z,5.73
2018-12-11T21:58:17.064Z,5.83
2018-12-11T22:00:45.257Z,12.50
2018-12-11T22:03:13.779Z,8.90
2018-12-11T22:05:42.110Z,6.93
2018-12-11T22:08:10.284Z,7.20
2018-12-11T22:10:38.525Z,5.80
2018-12-11T22:13:06.788Z,9.83
2018-12-11T22:15:34.880Z,8.37
2018-12-11T22:18:03.052Z,5.50
2018-12-11T22:20:31.226Z,6.43
2018-12-11T22:22:59.350Z,12.77
2018-12-11T22:25:27.442Z,6.10
2018-12-11T22:27:55.542Z,6.40
2018-12-11T22:30:23.687Z,10.17
2018-12-11T22:32:51.865Z,6.43
2018-12-11T22:35:19.971Z,5.40
2018-12-11T22:37:48.149Z,8.87
2018-12-11T22:40:16.262Z,9.17
2018-12-11T22:42:44.455Z,6.43
2018-12-11T22:45:12.614Z,8.80
2018-12-11T22:47:40.710Z,11.77
2018-12-11T22:50:08.870Z,7.83
2018-12-11T22:52:37.005Z,6.73
2018-12-11T22:55:05.482Z,7.23
2018-12-11T22:57:33.568Z,7.33
2018-12-11T23:00:01.730Z,9.70
2018-12-11T23:02:30.254Z,6.93
2018-12-11T23:04:58.493Z,6.53
2018-12-11T23:07:26.594Z,7.83
2018-12-11T23:09:54.718Z,9.07
2018-12-11T23:12:22.886Z,7.27
2018-12-11T23:14:51.005Z,7.47
2018-12-11T23:17:19.180Z,7.20
2018-12-11T23:19:47.319Z,6.20
2018-12-11T23:22:15.474Z,8.90
2018-12-11T23:24:43.995Z,10.33
2018-12-11T23:27:12.320Z,6.93
2018-12-11T23:29:40.424Z,12.40
2018-12-11T23:32:08.950Z,13.30
2018-12-11T23:34:37.039Z,9.23
2018-12-11T23:37:05.286Z,12.00
2018-12-11T23:39:33.406Z,10.57
2018-12-11T23:42:01.565Z,7.90
2018-12-11T23:44:29.710Z,8.70
2018-12-11T23:46:57.877Z,8.33
2018-12-11T23:49:25.986Z,8.87
2018-12-11T23:51:54.153Z,13.73
2018-12-11T23:54:22.257Z,11.83
2018-12-11T23:56:50.344Z,10.10
2018-12-11T23:59:18.544Z,9.83
